sensor_id;sensor_type;location;lat;lon;timestamp;pressure;altitude;pressure_sealevel;temperature;humidity
26192;BME280;13935;55.672;37.764;2023-04-25T04:06:02;99838.38;;;21.37;48.88
26192;BME280;13935;55.672;37.764;2023-04-25T04:07:09;99840.75;;;21.68;47.89
26192;BME280;13935;55.672;37.764;2023-04-25T04:08:15;99837.72;;;21.84;46.51
26192;BME280;13935;55.672;37.764;2023-04-25T04:09:20;99836.34;;;22.37;45.28
26192;BME280;13935;55.672;37.764;2023-04-25T04:10:28;99823.53;;;22.63;44.47
26192;BME280;13935;55.672;37.764;2023-04-25T04:11:37;99839.50;;;22.48;44.44
26192;BME280;13935;55.672;37.764;2023-04-25T04:12:41;99835.75;;;22.87;43.06
26192;BME280;13935;55.672;37.764;2023-04-25T04:13:44;99846.53;;;23.60;41.44
26192;BME280;13935;55.672;37.764;2023-04-25T04:14:46;99838.00;;;24.19;39.83
26192;BME280;13935;55.672;37.764;2023-04-25T04:15:49;99842.56;;;23.66;40.52
26192;BME280;13935;55.672;37.764;2023-04-25T04:16:51;99839.13;;;23.62;39.65
26192;BME280;13935;55.672;37.764;2023-04-25T04:17:54;99843.81;;;23.83;39.87
26192;BME280;13935;55.672;37.764;2023-04-25T04:18:57;99851.94;;;24.54;38.72
26192;BME280;13935;55.672;37.764;2023-04-25T04:19:59;99849.66;;;24.67;37.99
26192;BME280;13935;55.672;37.764;2023-04-25T04:21:05;99845.22;;;24.20;38.65
26192;BME280;13935;55.672;37.764;2023-04-25T04:22:10;99847.50;;;24.86;37.53
26192;BME280;13935;55.672;37.764;2023-04-25T04:23:14;99846.88;;;24.82;37.95
26192;BME280;13935;55.672;37.764;2023-04-25T04:24:22;99848.59;;;25.40;37.35
26192;BME280;13935;55.672;37.764;2023-04-25T04:25:41;99845.25;;;25.99;35.36
26192;BME280;13935;55.672;37.764;2023-04-25T04:27:06;99839.19;;;25.92;35.84
26192;BME280;13935;55.672;37.764;2023-04-25T04:28:18;99841.66;;;25.56;36.48
26192;BME280;13935;55.672;37.764;2023-04-25T04:29:34;99848.78;;;25.66;35.36
26192;BME280;13935;55.672;37.764;2023-04-25T04:30:42;99849.88;;;25.97;34.83
26192;BME280;13935;55.672;37.764;2023-04-25T04:31:58;99833.53;;;26.80;33.70
26192;BME280;13935;55.672;37.764;2023-04-25T04:33:04;99845.53;;;27.30;33.09
26192;BME280;13935;55.672;37.764;2023-04-25T04:34:12;99846.38;;;26.76;33.40
26192;BME280;13935;55.672;37.764;2023-04-25T04:35:15;99840.38;;;27.34;33.18
26192;BME280;13935;55.672;37.764;2023-04-25T04:36:22;99843.22;;;27.34;32.02
26192;BME280;13935;55.672;37.764;2023-04-25T04:37:27;99835.59;;;27.70;31.63
26192;BME280;13935;55.672;37.764;2023-04-25T04:38:36;99851.44;;;27.77;32.11
26192;BME280;13935;55.672;37.764;2023-04-25T04:40:07;99849.00;;;27.64;31.63
26192;BME280;13935;55.672;37.764;2023-04-25T04:41:33;99848.53;;;27.71;31.64
26192;BME280;13935;55.672;37.764;2023-04-25T04:42:53;99850.19;;;27.33;32.17
26192;BME280;13935;55.672;37.764;2023-04-25T04:44:22;99850.78;;;26.97;32.50
26192;BME280;13935;55.672;37.764;2023-04-25T04:46:03;99852.25;;;27.32;32.27
26192;BME280;13935;55.672;37.764;2023-04-25T04:47:17;99852.34;;;27.38;31.87
26192;BME280;13935;55.672;37.764;2023-04-25T04:48:50;99844.31;;;27.61;31.75
26192;BME280;13935;55.672;37.764;2023-04-25T04:50:10;99851.84;;;27.44;31.59
26192;BME280;13935;55.672;37.764;2023-04-25T04:51:31;99850.66;;;27.76;31.33
26192;BME280;13935;55.672;37.764;2023-04-25T04:52:51;99852.19;;;27.27;32.08
26192;BME280;13935;55.672;37.764;2023-04-25T04:54:12;99844.59;;;27.94;31.33
26192;BME280;13935;55.672;37.764;2023-04-25T04:55:26;99839.84;;;28.16;31.05
26192;BME280;13935;55.672;37.764;2023-04-25T04:56:43;99843.78;;;28.19;30.79
26192;BME280;13935;55.672;37.764;2023-04-25T04:58:28;99842.44;;;28.51;30.43
26192;BME280;13935;55.672;37.764;2023-04-25T05:00:08;99844.22;;;28.48;30.83
26192;BME280;13935;55.672;37.764;2023-04-25T05:01:52;99835.44;;;28.52;30.12
26192;BME280;13935;55.672;37.764;2023-04-25T05:03:32;99839.28;;;28.96;29.11
26192;BME280;13935;55.672;37.764;2023-04-25T05:04:55;99838.97;;;29.63;29.06
26192;BME280;13935;55.672;37.764;2023-04-25T05:06:17;99844.84;;;29.21;28.82
26192;BME280;13935;55.672;37.764;2023-04-25T05:07:41;99847.31;;;30.32;27.97
26192;BME280;13935;55.672;37.764;2023-04-25T05:09:38;99849.59;;;29.46;28.95
26192;BME280;13935;55.672;37.764;2023-04-25T05:10:58;99838.41;;;29.37;29.09
26192;BME280;13935;55.672;37.764;2023-04-25T05:12:24;99846.47;;;29.44;28.60
26192;BME280;13935;55.672;37.764;2023-04-25T05:13:52;99846.75;;;29.57;28.73
26192;BME280;13935;55.672;37.764;2023-04-25T05:15:14;99837.97;;;29.99;28.86
26192;BME280;13935;55.672;37.764;2023-04-25T05:16:32;99846.78;;;30.34;27.80
26192;BME280;13935;55.672;37.764;2023-04-25T05:17:55;99838.00;;;28.92;29.96
26192;BME280;13935;55.672;37.764;2023-04-25T05:19:22;99833.53;;;29.87;28.54
26192;BME280;13935;55.672;37.764;2023-04-25T05:20:45;99840.31;;;30.06;27.73
26192;BME280;13935;55.672;37.764;2023-04-25T05:21:51;99838.47;;;30.46;27.32
26192;BME280;13935;55.672;37.764;2023-04-25T05:23:18;99838.22;;;30.23;27.30
26192;BME280;13935;55.672;37.764;2023-04-25T05:24:49;99831.22;;;29.96;27.65
26192;BME280;13935;55.672;37.764;2023-04-25T05:26:22;99842.13;;;29.92;28.24
26192;BME280;13935;55.672;37.764;2023-04-25T05:27:36;99840.56;;;30.13;27.69
26192;BME280;13935;55.672;37.764;2023-04-25T05:28:52;99836.69;;;30.00;27.34
26192;BME280;13935;55.672;37.764;2023-04-25T05:30:13;99846.03;;;31.57;25.96
26192;BME280;13935;55.672;37.764;2023-04-25T05:31:40;99839.66;;;31.35;25.84
26192;BME280;13935;55.672;37.764;2023-04-25T05:32:45;99844.19;;;30.08;26.82
26192;BME280;13935;55.672;37.764;2023-04-25T05:33:48;99845.47;;;30.24;27.17
26192;BME280;13935;55.672;37.764;2023-04-25T05:34:52;99845.41;;;30.67;26.96
26192;BME280;13935;55.672;37.764;2023-04-25T05:35:59;99839.25;;;29.87;27.45
26192;BME280;13935;55.672;37.764;2023-04-25T05:37:02;99833.34;;;28.99;28.38
26192;BME280;13935;55.672;37.764;2023-04-25T05:38:05;99843.06;;;29.35;28.68
26192;BME280;13935;55.672;37.764;2023-04-25T05:39:26;99829.63;;;28.30;29.77
26192;BME280;13935;55.672;37.764;2023-04-25T05:40:59;99827.00;;;26.74;31.42
26192;BME280;13935;55.672;37.764;2023-04-25T05:42:18;99829.06;;;26.94;31.74
26192;BME280;13935;55.672;37.764;2023-04-25T05:43:31;99823.94;;;25.90;33.34
26192;BME280;13935;55.672;37.764;2023-04-25T05:44:55;99823.22;;;24.47;35.58
26192;BME280;13935;55.672;37.764;2023-04-25T05:46:06;99823.09;;;25.03;35.09
26192;BME280;13935;55.672;37.764;2023-04-25T05:47:19;99826.59;;;26.81;32.84
26192;BME280;13935;55.672;37.764;2023-04-25T05:48:58;99818.31;;;27.74;30.68
26192;BME280;13935;55.672;37.764;2023-04-25T05:50:23;99818.88;;;28.14;30.29
26192;BME280;13935;55.672;37.764;2023-04-25T05:51:33;99829.34;;;28.75;29.55
26192;BME280;13935;55.672;37.764;2023-04-25T05:53:04;99825.00;;;30.03;27.82
26192;BME280;13935;55.672;37.764;2023-04-25T05:54:14;99822.19;;;30.93;27.07
26192;BME280;13935;55.672;37.764;2023-04-25T05:55:15;99817.41;;;30.49;27.19
26192;BME280;13935;55.672;37.764;2023-04-25T05:56:19;99822.09;;;30.41;27.79
26192;BME280;13935;55.672;37.764;2023-04-25T05:57:24;99821.34;;;30.19;27.13
26192;BME280;13935;55.672;37.764;2023-04-25T05:58:28;99818.00;;;30.10;27.08
26192;BME280;13935;55.672;37.764;2023-04-25T05:59:32;99813.06;;;29.94;27.48
26192;BME280;13935;55.672;37.764;2023-04-25T06:00:34;99817.69;;;29.75;27.98
26192;BME280;13935;55.672;37.764;2023-04-25T06:01:36;99815.69;;;30.92;27.04
26192;BME280;13935;55.672;37.764;2023-04-25T06:02:38;99814.72;;;32.05;26.11
26192;BME280;13935;55.672;37.764;2023-04-25T06:03:50;99811.09;;;31.99;24.81
26192;BME280;13935;55.672;37.764;2023-04-25T06:05:00;99811.47;;;31.85;24.86
26192;BME280;13935;55.672;37.764;2023-04-25T06:06:05;99813.97;;;31.24;25.24
26192;BME280;13935;55.672;37.764;2023-04-25T06:07:08;99807.00;;;30.57;26.11
26192;BME280;13935;55.672;37.764;2023-04-25T06:08:10;99807.78;;;31.20;25.62
26192;BME280;13935;55.672;37.764;2023-04-25T06:09:13;99806.91;;;32.00;24.47
26192;BME280;13935;55.672;37.764;2023-04-25T06:10:18;99806.69;;;31.23;24.55
26192;BME280;13935;55.672;37.764;2023-04-25T06:11:20;99800.47;;;30.62;25.20
26192;BME280;13935;55.672;37.764;2023-04-25T06:12:21;99808.72;;;30.77;24.97
26192;BME280;13935;55.672;37.764;2023-04-25T06:13:25;99801.84;;;31.13;25.09
26192;BME280;13935;55.672;37.764;2023-04-25T06:14:43;99789.94;;;31.78;24.32
26192;BME280;13935;55.672;37.764;2023-04-25T06:16:05;99790.53;;;32.48;23.70
26192;BME280;13935;55.672;37.764;2023-04-25T06:17:08;99797.47;;;32.10;24.15
26192;BME280;13935;55.672;37.764;2023-04-25T06:18:30;99797.06;;;32.25;23.69
26192;BME280;13935;55.672;37.764;2023-04-25T06:19:35;99791.56;;;31.97;23.68
26192;BME280;13935;55.672;37.764;2023-04-25T06:20:57;99800.41;;;32.29;23.33
26192;BME280;13935;55.672;37.764;2023-04-25T06:22:10;99800.03;;;32.14;23.42
26192;BME280;13935;55.672;37.764;2023-04-25T06:23:19;99797.00;;;32.30;23.72
26192;BME280;13935;55.672;37.764;2023-04-25T06:24:46;99784.34;;;31.91;23.62
26192;BME280;13935;55.672;37.764;2023-04-25T06:25:49;99788.47;;;32.49;23.03
26192;BME280;13935;55.672;37.764;2023-04-25T06:26:51;99793.53;;;32.37;22.87
26192;BME280;13935;55.672;37.764;2023-04-25T06:27:54;99788.88;;;32.10;22.89
26192;BME280;13935;55.672;37.764;2023-04-25T06:28:56;99791.69;;;32.16;22.97
26192;BME280;13935;55.672;37.764;2023-04-25T06:29:58;99783.09;;;32.16;22.73
26192;BME280;13935;55.672;37.764;2023-04-25T06:31:00;99778.25;;;32.77;22.93
26192;BME280;13935;55.672;37.764;2023-04-25T06:32:04;99782.53;;;32.41;23.21
26192;BME280;13935;55.672;37.764;2023-04-25T06:33:06;99778.31;;;32.90;22.58
26192;BME280;13935;55.672;37.764;2023-04-25T06:34:10;99788.16;;;32.76;22.26
26192;BME280;13935;55.672;37.764;2023-04-25T06:35:14;99771.91;;;32.60;22.68
26192;BME280;13935;55.672;37.764;2023-04-25T06:36:16;99778.56;;;32.73;22.48
26192;BME280;13935;55.672;37.764;2023-04-25T06:37:21;99790.03;;;32.92;22.42
26192;BME280;13935;55.672;37.764;2023-04-25T06:38:40;99783.81;;;32.22;22.64
26192;BME280;13935;55.672;37.764;2023-04-25T06:39:42;99784.69;;;31.82;22.64
26192;BME280;13935;55.672;37.764;2023-04-25T06:40:45;99789.53;;;31.92;22.99
26192;BME280;13935;55.672;37.764;2023-04-25T06:41:47;99782.97;;;31.97;22.61
26192;BME280;13935;55.672;37.764;2023-04-25T06:43:08;99780.94;;;31.92;22.97
26192;BME280;13935;55.672;37.764;2023-04-25T06:44:31;99785.56;;;31.72;23.28
26192;BME280;13935;55.672;37.764;2023-04-25T06:45:33;99788.34;;;32.12;22.91
26192;BME280;13935;55.672;37.764;2023-04-25T06:46:36;99785.06;;;31.68;23.13
26192;BME280;13935;55.672;37.764;2023-04-25T06:47:39;99787.72;;;31.66;23.33
26192;BME280;13935;55.672;37.764;2023-04-25T06:48:47;99788.75;;;31.63;23.68
26192;BME280;13935;55.672;37.764;2023-04-25T06:49:51;99786.44;;;32.20;22.96
26192;BME280;13935;55.672;37.764;2023-04-25T06:51:04;99791.03;;;32.28;23.38
26192;BME280;13935;55.672;37.764;2023-04-25T06:52:15;99786.03;;;33.19;22.15
26192;BME280;13935;55.672;37.764;2023-04-25T06:53:20;99793.13;;;31.69;22.89
26192;BME280;13935;55.672;37.764;2023-04-25T06:54:27;99786.75;;;31.87;22.88
26192;BME280;13935;55.672;37.764;2023-04-25T06:55:38;99780.34;;;32.53;23.12
26192;BME280;13935;55.672;37.764;2023-04-25T06:57:03;99789.84;;;33.76;22.22
26192;BME280;13935;55.672;37.764;2023-04-25T06:58:27;99787.84;;;33.53;22.15
26192;BME280;13935;55.672;37.764;2023-04-25T06:59:46;99786.47;;;32.86;22.23
26192;BME280;13935;55.672;37.764;2023-04-25T07:00:48;99794.47;;;33.30;22.07
26192;BME280;13935;55.672;37.764;2023-04-25T07:01:52;99787.81;;;32.61;22.56
26192;BME280;13935;55.672;37.764;2023-04-25T07:03:04;99791.41;;;32.19;22.93
26192;BME280;13935;55.672;37.764;2023-04-25T07:04:12;99791.38;;;32.67;22.56
26192;BME280;13935;55.672;37.764;2023-04-25T07:05:20;99788.44;;;32.25;22.90
26192;BME280;13935;55.672;37.764;2023-04-25T07:06:22;99780.56;;;32.97;22.28
26192;BME280;13935;55.672;37.764;2023-04-25T07:07:34;99783.50;;;33.46;22.15
26192;BME280;13935;55.672;37.764;2023-04-25T07:08:36;99782.66;;;32.54;22.37
26192;BME280;13935;55.672;37.764;2023-04-25T07:09:38;99774.13;;;32.49;22.16
26192;BME280;13935;55.672;37.764;2023-04-25T07:10:43;99784.66;;;33.07;22.43
26192;BME280;13935;55.672;37.764;2023-04-25T07:12:06;99789.97;;;33.16;21.68
26192;BME280;13935;55.672;37.764;2023-04-25T07:13:09;99777.81;;;33.10;21.56
26192;BME280;13935;55.672;37.764;2023-04-25T07:14:12;99781.00;;;33.25;21.82
26192;BME280;13935;55.672;37.764;2023-04-25T07:15:14;99787.50;;;33.25;21.44
26192;BME280;13935;55.672;37.764;2023-04-25T07:16:19;99784.53;;;32.04;21.99
26192;BME280;13935;55.672;37.764;2023-04-25T07:17:21;99792.75;;;33.39;21.13
26192;BME280;13935;55.672;37.764;2023-04-25T07:18:29;99781.97;;;31.25;22.50
26192;BME280;13935;55.672;37.764;2023-04-25T07:19:33;99782.16;;;29.49;24.27
26192;BME280;13935;55.672;37.764;2023-04-25T07:20:46;99787.28;;;29.17;24.86
26192;BME280;13935;55.672;37.764;2023-04-25T07:21:48;99777.88;;;31.50;23.21
26192;BME280;13935;55.672;37.764;2023-04-25T07:23:01;99783.81;;;31.92;22.76
26192;BME280;13935;55.672;37.764;2023-04-25T07:24:03;99784.50;;;32.52;22.58
26192;BME280;13935;55.672;37.764;2023-04-25T07:25:15;99784.25;;;31.38;23.15
26192;BME280;13935;55.672;37.764;2023-04-25T07:26:18;99783.19;;;31.41;23.25
26192;BME280;13935;55.672;37.764;2023-04-25T07:27:58;99783.88;;;30.55;23.74
26192;BME280;13935;55.672;37.764;2023-04-25T07:29:22;99784.34;;;31.62;23.30
26192;BME280;13935;55.672;37.764;2023-04-25T07:30:24;99787.69;;;32.24;22.45
26192;BME280;13935;55.672;37.764;2023-04-25T07:31:28;99786.50;;;32.14;22.76
26192;BME280;13935;55.672;37.764;2023-04-25T07:32:40;99789.34;;;30.42;24.03
26192;BME280;13935;55.672;37.764;2023-04-25T07:33:42;99784.78;;;29.96;24.26
26192;BME280;13935;55.672;37.764;2023-04-25T07:34:44;99785.00;;;30.14;24.49
26192;BME280;13935;55.672;37.764;2023-04-25T07:35:46;99783.72;;;29.66;24.93
26192;BME280;13935;55.672;37.764;2023-04-25T07:36:49;99774.28;;;29.05;25.89
26192;BME280;13935;55.672;37.764;2023-04-25T07:38:01;99763.47;;;30.08;24.81
26192;BME280;13935;55.672;37.764;2023-04-25T07:39:08;99766.16;;;30.62;24.35
26192;BME280;13935;55.672;37.764;2023-04-25T07:40:11;99771.78;;;29.95;24.99
26192;BME280;13935;55.672;37.764;2023-04-25T07:41:20;99775.41;;;29.35;25.86
26192;BME280;13935;55.672;37.764;2023-04-25T07:42:22;99768.13;;;28.49;26.69
26192;BME280;13935;55.672;37.764;2023-04-25T07:43:25;99778.47;;;29.15;26.78
26192;BME280;13935;55.672;37.764;2023-04-25T07:44:33;99760.53;;;28.35;26.48
26192;BME280;13935;55.672;37.764;2023-04-25T07:45:45;99776.84;;;28.92;26.21
26192;BME280;13935;55.672;37.764;2023-04-25T07:46:50;99780.50;;;28.98;26.12
26192;BME280;13935;55.672;37.764;2023-04-25T07:47:59;99775.31;;;27.66;26.89
26192;BME280;13935;55.672;37.764;2023-04-25T07:49:03;99778.47;;;27.74;26.83
26192;BME280;13935;55.672;37.764;2023-04-25T07:50:16;99770.22;;;28.17;26.41
26192;BME280;13935;55.672;37.764;2023-04-25T07:51:18;99774.50;;;27.10;27.67
26192;BME280;13935;55.672;37.764;2023-04-25T07:52:23;99771.38;;;26.28;28.25
26192;BME280;13935;55.672;37.764;2023-04-25T07:53:34;99778.28;;;26.22;27.60
26192;BME280;13935;55.672;37.764;2023-04-25T07:54:52;99777.88;;;26.68;26.95
26192;BME280;13935;55.672;37.764;2023-04-25T07:56:02;99771.69;;;26.70;27.77
26192;BME280;13935;55.672;37.764;2023-04-25T07:57:07;99769.19;;;25.84;29.10
26192;BME280;13935;55.672;37.764;2023-04-25T07:58:11;99772.09;;;26.23;28.81
26192;BME280;13935;55.672;37.764;2023-04-25T07:59:20;99780.47;;;25.35;29.77
26192;BME280;13935;55.672;37.764;2023-04-25T08:00:23;99772.88;;;24.89;31.18
26192;BME280;13935;55.672;37.764;2023-04-25T08:01:37;99780.91;;;25.91;30.08
26192;BME280;13935;55.672;37.764;2023-04-25T08:02:51;99775.31;;;25.96;30.22
26192;BME280;13935;55.672;37.764;2023-04-25T08:03:54;99775.06;;;26.34;29.73
26192;BME280;13935;55.672;37.764;2023-04-25T08:05:22;99776.47;;;26.59;29.58
26192;BME280;13935;55.672;37.764;2023-04-25T08:06:33;99782.88;;;25.85;30.92
26192;BME280;13935;55.672;37.764;2023-04-25T08:07:55;99778.59;;;26.09;30.62
26192;BME280;13935;55.672;37.764;2023-04-25T08:08:58;99765.69;;;27.08;29.73
26192;BME280;13935;55.672;37.764;2023-04-25T08:10:08;99775.72;;;27.29;29.11
26192;BME280;13935;55.672;37.764;2023-04-25T08:11:10;99776.22;;;27.02;29.07
26192;BME280;13935;55.672;37.764;2023-04-25T08:12:19;99780.28;;;26.56;28.72
26192;BME280;13935;55.672;37.764;2023-04-25T08:13:24;99764.78;;;27.22;28.41
26192;BME280;13935;55.672;37.764;2023-04-25T08:14:33;99761.41;;;28.10;27.96
26192;BME280;13935;55.672;37.764;2023-04-25T08:15:44;99753.91;;;27.76;28.18
26192;BME280;13935;55.672;37.764;2023-04-25T08:16:46;99761.34;;;27.99;28.05
26192;BME280;13935;55.672;37.764;2023-04-25T08:17:49;99765.97;;;26.90;29.07
26192;BME280;13935;55.672;37.764;2023-04-25T08:18:51;99761.94;;;25.97;30.68
26192;BME280;13935;55.672;37.764;2023-04-25T08:20:05;99754.06;;;26.06;30.21
26192;BME280;13935;55.672;37.764;2023-04-25T08:21:08;99754.25;;;26.37;30.43
26192;BME280;13935;55.672;37.764;2023-04-25T08:22:13;99762.91;;;27.13;29.70
26192;BME280;13935;55.672;37.764;2023-04-25T08:23:30;99761.66;;;27.20;29.20
26192;BME280;13935;55.672;37.764;2023-04-25T08:24:57;99763.88;;;26.45;29.65
26192;BME280;13935;55.672;37.764;2023-04-25T08:25:59;99764.78;;;25.68;30.50
26192;BME280;13935;55.672;37.764;2023-04-25T08:27:02;99762.50;;;25.38;30.52
26192;BME280;13935;55.672;37.764;2023-04-25T08:28:05;99766.09;;;25.24;30.27
26192;BME280;13935;55.672;37.764;2023-04-25T08:29:17;99755.34;;;25.42;30.63
26192;BME280;13935;55.672;37.764;2023-04-25T08:30:22;99751.84;;;25.33;30.88
26192;BME280;13935;55.672;37.764;2023-04-25T08:31:35;99759.22;;;24.87;31.49
26192;BME280;13935;55.672;37.764;2023-04-25T08:32:38;99756.16;;;25.14;31.52
26192;BME280;13935;55.672;37.764;2023-04-25T08:34:09;99758.84;;;25.52;31.21
26192;BME280;13935;55.672;37.764;2023-04-25T08:35:32;99754.59;;;25.13;31.06
26192;BME280;13935;55.672;37.764;2023-04-25T08:36:45;99751.16;;;24.71;31.36
26192;BME280;13935;55.672;37.764;2023-04-25T08:38:12;99752.16;;;24.83;31.24
26192;BME280;13935;55.672;37.764;2023-04-25T08:39:14;99752.28;;;24.88;31.03
26192;BME280;13935;55.672;37.764;2023-04-25T08:40:31;99751.31;;;24.07;31.67
26192;BME280;13935;55.672;37.764;2023-04-25T08:41:46;99752.44;;;24.70;31.18
26192;BME280;13935;55.672;37.764;2023-04-25T08:42:48;99756.16;;;24.39;31.01
26192;BME280;13935;55.672;37.764;2023-04-25T08:43:53;99754.16;;;24.30;30.99
26192;BME280;13935;55.672;37.764;2023-04-25T08:44:59;99750.56;;;23.74;31.18
26192;BME280;13935;55.672;37.764;2023-04-25T08:46:09;99754.78;;;23.70;30.97
26192;BME280;13935;55.672;37.764;2023-04-25T08:47:27;99746.69;;;23.95;31.18
26192;BME280;13935;55.672;37.764;2023-04-25T08:48:32;99748.81;;;23.76;31.15
26192;BME280;13935;55.672;37.764;2023-04-25T08:49:39;99746.34;;;24.02;30.83
26192;BME280;13935;55.672;37.764;2023-04-25T08:50:51;99743.03;;;24.27;30.68
26192;BME280;13935;55.672;37.764;2023-04-25T08:51:57;99741.81;;;23.95;30.28
26192;BME280;13935;55.672;37.764;2023-04-25T08:53:04;99729.78;;;23.86;30.54
26192;BME280;13935;55.672;37.764;2023-04-25T08:54:14;99744.34;;;24.17;30.41
26192;BME280;13935;55.672;37.764;2023-04-25T08:55:38;99735.44;;;24.33;30.26
26192;BME280;13935;55.672;37.764;2023-04-25T08:56:49;99746.06;;;23.91;30.33
26192;BME280;13935;55.672;37.764;2023-04-25T08:57:51;99732.59;;;23.86;29.51
26192;BME280;13935;55.672;37.764;2023-04-25T08:58:54;99738.03;;;23.98;30.08
26192;BME280;13935;55.672;37.764;2023-04-25T09:00:05;99740.91;;;23.48;30.70
26192;BME280;13935;55.672;37.764;2023-04-25T09:01:20;99727.75;;;23.45;31.01
26192;BME280;13935;55.672;37.764;2023-04-25T09:02:27;99727.09;;;23.50;31.02
26192;BME280;13935;55.672;37.764;2023-04-25T09:03:29;99737.22;;;23.33;31.44
26192;BME280;13935;55.672;37.764;2023-04-25T09:04:31;99733.84;;;22.67;31.62
26192;BME280;13935;55.672;37.764;2023-04-25T09:05:44;99728.50;;;22.15;33.27
26192;BME280;13935;55.672;37.764;2023-04-25T09:06:49;99722.72;;;22.19;33.15
26192;BME280;13935;55.672;37.764;2023-04-25T09:07:52;99724.25;;;21.93;33.72
26192;BME280;13935;55.672;37.764;2023-04-25T09:08:54;99724.06;;;21.87;33.69
26192;BME280;13935;55.672;37.764;2023-04-25T09:09:56;99723.81;;;22.03;33.97
26192;BME280;13935;55.672;37.764;2023-04-25T09:11:04;99714.72;;;22.17;33.71
26192;BME280;13935;55.672;37.764;2023-04-25T09:12:06;99716.19;;;22.30;32.46
26192;BME280;13935;55.672;37.764;2023-04-25T09:15:08;99718.19;;;22.30;32.44
26192;BME280;13935;55.672;37.764;2023-04-25T09:18:28;99707.25;;;22.50;32.15
26192;BME280;13935;55.672;37.764;2023-04-25T09:19:43;99714.47;;;22.33;32.56
26192;BME280;13935;55.672;37.764;2023-04-25T09:21:21;99701.25;;;22.21;32.68
26192;BME280;13935;55.672;37.764;2023-04-25T09:22:24;99705.38;;;22.38;32.57
26192;BME280;13935;55.672;37.764;2023-04-25T09:23:27;99709.94;;;22.44;32.38
26192;BME280;13935;55.672;37.764;2023-04-25T09:24:33;99702.81;;;22.04;33.18
26192;BME280;13935;55.672;37.764;2023-04-25T09:25:37;99712.25;;;22.28;33.38
26192;BME280;13935;55.672;37.764;2023-04-25T09:26:42;99717.38;;;22.03;33.51
26192;BME280;13935;55.672;37.764;2023-04-25T09:27:52;99700.00;;;22.13;33.68
26192;BME280;13935;55.672;37.764;2023-04-25T09:29:12;99702.19;;;21.91;34.09
26192;BME280;13935;55.672;37.764;2023-04-25T09:30:34;99701.09;;;22.16;34.03
26192;BME280;13935;55.672;37.764;2023-04-25T09:32:18;99700.28;;;21.88;34.14
26192;BME280;13935;55.672;37.764;2023-04-25T09:33:33;99698.09;;;22.01;34.25
26192;BME280;13935;55.672;37.764;2023-04-25T09:34:57;99690.59;;;22.07;34.09
26192;BME280;13935;55.672;37.764;2023-04-25T09:36:26;99684.66;;;22.14;33.55
26192;BME280;13935;55.672;37.764;2023-04-25T09:37:51;99685.53;;;21.75;33.26
26192;BME280;13935;55.672;37.764;2023-04-25T09:39:19;99698.44;;;22.12;33.27
26192;BME280;13935;55.672;37.764;2023-04-25T09:40:46;99692.84;;;21.55;33.70
26192;BME280;13935;55.672;37.764;2023-04-25T09:41:57;99695.53;;;21.58;34.11
26192;BME280;13935;55.672;37.764;2023-04-25T09:43:00;99696.19;;;21.80;33.87
26192;BME280;13935;55.672;37.764;2023-04-25T09:44:03;99690.09;;;21.91;33.48
26192;BME280;13935;55.672;37.764;2023-04-25T09:45:24;99694.44;;;21.65;33.13
26192;BME280;13935;55.672;37.764;2023-04-25T09:46:33;99694.75;;;21.67;33.36
26192;BME280;13935;55.672;37.764;2023-04-25T09:47:55;99691.03;;;21.40;32.88
26192;BME280;13935;55.672;37.764;2023-04-25T09:49:06;99681.44;;;21.19;33.86
26192;BME280;13935;55.672;37.764;2023-04-25T09:52:13;99686.22;;;20.80;35.55
26192;BME280;13935;55.672;37.764;2023-04-25T09:53:57;99679.81;;;20.79;35.38
26192;BME280;13935;55.672;37.764;2023-04-25T09:55:11;99678.38;;;20.53;36.10
26192;BME280;13935;55.672;37.764;2023-04-25T09:56:16;99682.28;;;20.77;35.83
26192;BME280;13935;55.672;37.764;2023-04-25T09:57:19;99678.28;;;21.17;35.56
26192;BME280;13935;55.672;37.764;2023-04-25T09:58:33;99672.91;;;21.01;35.74
26192;BME280;13935;55.672;37.764;2023-04-25T09:59:44;99680.91;;;21.12;35.54
26192;BME280;13935;55.672;37.764;2023-04-25T10:00:48;99672.63;;;20.78;34.89
26192;BME280;13935;55.672;37.764;2023-04-25T10:02:09;99678.25;;;20.78;35.89
26192;BME280;13935;55.672;37.764;2023-04-25T10:03:14;99677.97;;;20.85;35.57
26192;BME280;13935;55.672;37.764;2023-04-25T10:04:34;99675.47;;;20.87;36.16
26192;BME280;13935;55.672;37.764;2023-04-25T10:05:44;99669.91;;;20.96;36.05
26192;BME280;13935;55.672;37.764;2023-04-25T10:06:48;99668.38;;;21.04;36.63
26192;BME280;13935;55.672;37.764;2023-04-25T10:07:59;99659.66;;;21.11;36.20
26192;BME280;13935;55.672;37.764;2023-04-25T10:09:06;99659.31;;;21.39;36.08
26192;BME280;13935;55.672;37.764;2023-04-25T10:10:15;99659.31;;;21.48;35.99
26192;BME280;13935;55.672;37.764;2023-04-25T10:11:24;99665.16;;;21.62;35.89
26192;BME280;13935;55.672;37.764;2023-04-25T10:12:29;99654.22;;;21.73;35.61
26192;BME280;13935;55.672;37.764;2023-04-25T10:13:33;99660.81;;;21.70;35.92
26192;BME280;13935;55.672;37.764;2023-04-25T10:14:39;99672.78;;;21.05;36.65
26192;BME280;13935;55.672;37.764;2023-04-25T10:15:48;99662.03;;;21.21;36.46
26192;BME280;13935;55.672;37.764;2023-04-25T10:16:53;99657.31;;;20.79;37.54
26192;BME280;13935;55.672;37.764;2023-04-25T10:17:56;99657.31;;;20.79;37.35
26192;BME280;13935;55.672;37.764;2023-04-25T10:18:58;99671.88;;;20.65;37.39
26192;BME280;13935;55.672;37.764;2023-04-25T10:20:11;99667.56;;;20.73;37.52
26192;BME280;13935;55.672;37.764;2023-04-25T10:21:24;99653.28;;;20.89;37.13
26192;BME280;13935;55.672;37.764;2023-04-25T10:22:37;99654.44;;;21.00;36.94
26192;BME280;13935;55.672;37.764;2023-04-25T10:23:41;99656.53;;;21.18;36.90
26192;BME280;13935;55.672;37.764;2023-04-25T10:24:44;99657.53;;;21.24;35.87